Bronte, Texas
Current Conditions -  °F | °C
As of 11:51 PM on Friday 28 Nov 2014 (Local Time) from KSJT Reporting Station
Clear Clear  
Wind Chill: 57°   Ceiling: Unl
Heat Index: 57°   Visibility: 10mi
Dew Point: 44°   Wind: 21mph
Humidity: 62%   Direction: 200°SSW
Pressure: 30.02"   Gusts: 26mph
Location:  31.89°N, 100.29°W
Report Text: KSJT 290551Z AUTO 20018G23KT 10SM CLR 14/07 A3002 RMK AO2 PK WND 20028/0528 SLP154 T01390067 10183 20139 402330072 58007
Loading
Personal Weather Stations






























Interactive Weather Map New forecast layout! Learn more

10-Day Weather Forecast

Advertisements
Track Severe Weather on mobile